Time;durP1;ratioP1;P1;durP2;ratioP2;P2;SDS_P1;SDS_P2;PMS_P1;PMS_P2;Temp;Humidity;BMP_temperature;BMP_pressure;BME280_temperature;BME280_humidity;BME280_pressure;Samples;Min_cycle;Max_cycle;Signal;HPM_P1;HPM_P2
2021/09/12 00:01:58;;;;;;;18.80;8.95;;;;;;;13.66;100.00;100072.91;6257800;28;20041;-76
2021/09/12 00:04:59;;;;;;;14.45;8.30;;;;;;;13.61;100.00;100068.00;6236543;28;20479;-73
2021/09/12 00:08:00;;;;;;;14.43;7.47;;;;;;;13.62;100.00;100066.22;6262695;28;20441;-73
2021/09/12 00:11:01;;;;;;;15.77;7.45;;;;;;;13.57;100.00;100068.31;6297482;28;20395;-73
2021/09/12 00:14:02;;;;;;;12.18;7.38;;;;;;;13.63;100.00;100068.72;6297863;28;20047;-73
2021/09/12 00:17:03;;;;;;;11.93;7.65;;;;;;;13.49;100.00;100067.13;6298627;28;20044;-76
2021/09/12 00:20:06;;;;;;;17.17;9.18;;;;;;;13.36;100.00;100071.56;6280733;28;20040;-77
2021/09/12 00:23:07;;;;;;;26.92;12.13;;;;;;;13.32;100.00;100072.72;6298532;28;20127;-76
2021/09/12 00:26:09;;;;;;;24.10;11.57;;;;;;;13.26;97.99;100073.13;6297174;28;20044;-76
2021/09/12 00:29:10;;;;;;;25.40;11.45;;;;;;;13.27;100.00;100066.97;6298403;28;20041;-73
2021/09/12 00:32:10;;;;;;;28.10;11.98;;;;;;;13.23;100.00;100079.44;6298389;28;20045;-73
2021/09/12 00:35:13;;;;;;;21.45;9.88;;;;;;;13.18;100.00;100065.00;6297014;28;20036;-73
2021/09/12 00:38:14;;;;;;;19.38;8.02;;;;;;;13.16;100.00;100079.97;6297002;28;20044;-73
2021/09/12 00:41:15;;;;;;;14.00;6.80;;;;;;;13.20;100.00;100079.69;6298031;28;20427;-73
2021/09/12 00:44:16;;;;;;;17.50;7.00;;;;;;;13.08;100.00;100065.66;6296874;28;20071;-73
2021/09/12 00:47:17;;;;;;;11.70;6.05;;;;;;;13.04;100.00;100076.47;6296553;28;20056;-73
2021/09/12 00:50:19;;;;;;;9.90;6.32;;;;;;;12.88;100.00;100074.91;6279958;28;20094;-73
2021/09/12 00:53:22;;;;;;;11.93;5.30;;;;;;;12.77;100.00;100074.84;6263906;28;20045;-73
2021/09/12 00:56:23;;;;;;;13.63;6.25;;;;;;;12.75;100.00;100079.34;6297570;28;20048;-73
2021/09/12 00:59:24;;;;;;;10.27;5.78;;;;;;;12.72;100.00;100076.94;6296446;28;20047;-76
2021/09/12 01:02:25;;;;;;;11.30;6.30;;;;;;;12.55;100.00;100075.50;6263067;28;20049;-74
2021/09/12 01:05:26;;;;;;;12.93;6.55;;;;;;;12.50;100.00;100075.81;6272652;28;20045;-76
2021/09/12 01:08:27;;;;;;;11.85;6.10;;;;;;;12.50;100.00;100072.38;6272639;28;20037;-76
2021/09/12 01:11:28;;;;;;;13.00;6.57;;;;;;;12.47;100.00;100073.41;6271471;28;20388;-73
2021/09/12 01:14:31;;;;;;;10.32;6.60;;;;;;;12.48;100.00;100069.84;6271382;28;20044;-76
2021/09/12 01:17:32;;;;;;;10.35;6.07;;;;;;;12.51;100.00;100074.03;6271229;28;20053;-76
2021/09/12 01:20:33;;;;;;;13.43;6.97;;;;;;;12.48;100.00;100075.09;6272485;28;20115;-73
2021/09/12 01:23:34;;;;;;;13.40;6.50;;;;;;;12.41;100.00;100071.19;6271052;28;20036;-76
2021/09/12 01:26:35;;;;;;;15.10;6.82;;;;;;;12.37;100.00;100066.28;6254516;28;20120;-73
2021/09/12 01:29:36;;;;;;;15.43;8.07;;;;;;;12.30;100.00;100061.47;6254316;28;20553;-73
2021/09/12 01:32:37;;;;;;;12.90;7.05;;;;;;;12.28;100.00;100065.13;6271996;28;20041;-73
2021/09/12 01:35:38;;;;;;;14.48;8.05;;;;;;;12.34;100.00;100061.28;6272234;28;20183;-73
2021/09/12 01:38:39;;;;;;;14.73;8.20;;;;;;;12.27;100.00;100064.31;6254172;28;20520;-73
2021/09/12 01:41:40;;;;;;;14.45;8.07;;;;;;;12.25;100.00;100070.56;6271803;28;20515;-76
2021/09/12 01:44:49;;;;;;;14.48;8.13;;;;;;;12.24;100.00;100067.13;6270577;28;20040;-76
2021/09/12 01:47:49;;;;;;;25.98;9.07;;;;;;;12.18;100.00;100064.91;6270285;28;20562;-76
2021/09/12 01:50:50;;;;;;;14.75;8.93;;;;;;;12.21;100.00;100069.97;6254106;28;20037;-76
2021/09/12 01:53:51;;;;;;;16.13;9.40;;;;;;;12.08;100.00;100069.91;6271624;28;20044;-76
2021/09/12 01:56:52;;;;;;;14.13;8.52;;;;;;;12.07;100.00;100063.03;6271514;28;20423;-76
2021/09/12 01:59:52;;;;;;;16.77;8.23;;;;;;;12.04;100.00;100058.00;6271482;28;20106;-73
2021/09/12 02:02:53;;;;;;;13.63;7.55;;;;;;;11.98;100.00;100065.41;6270104;28;20047;-73
2021/09/12 02:05:54;;;;;;;14.57;8.05;;;;;;;11.92;100.00;100074.50;6253518;28;20045;-73
2021/09/12 02:08:55;;;;;;;14.70;8.68;;;;;;;11.89;100.00;100074.72;6271171;28;20048;-73
2021/09/12 02:11:56;;;;;;;16.33;7.85;;;;;;;11.93;100.00;100068.34;6274352;28;20383;-73
2021/09/12 02:14:58;;;;;;;12.50;7.95;;;;;;;11.87;100.00;100068.72;6297013;28;20406;-73
2021/09/12 02:17:59;;;;;;;;;;;;;;;11.82;100.00;100070.78;6239429;28;20053;-73
2021/09/12 02:21:00;;;;;;;24.35;11.70;;;;;;;11.80;100.00;100060.44;6246189;28;20356;-73
2021/09/12 02:24:01;;;;;;;31.07;14.20;;;;;;;11.79;100.00;100061.38;6246282;28;20056;-76
2021/09/12 02:27:02;;;;;;;27.17;13.30;;;;;;;11.78;100.00;100059.72;6247543;28;20050;-73
2021/09/12 02:30:05;;;;;;;26.23;14.02;;;;;;;11.76;100.00;100069.44;6247169;28;20045;-73
2021/09/12 02:33:05;;;;;;;29.20;13.15;;;;;;;11.70;100.00;100060.22;6247361;28;20539;-76
2021/09/12 02:36:06;;;;;;;29.52;13.30;;;;;;;11.75;100.00;100062.50;6247439;28;20144;-74
2021/09/12 02:39:07;;;;;;;21.38;12.02;;;;;;;11.72;100.00;100062.72;6296012;28;20487;-73
2021/09/12 02:42:08;;;;;;;24.30;11.70;;;;;;;11.67;100.00;100052.59;6296703;28;20049;-73
2021/09/12 02:45:10;;;;;;;19.15;11.07;;;;;;;11.63;100.00;100058.09;6296563;28;20037;-73
2021/09/12 02:48:11;;;;;;;;;;;;;;;11.64;100.00;100065.00;6296951;28;20053;-76
2021/09/12 02:51:12;;;;;;;19.73;10.60;;;;;;;11.61;100.00;100055.59;6294589;28;19982;-73
2021/09/12 02:54:12;;;;;;;18.75;10.55;;;;;;;11.65;100.00;100061.44;6284578;28;20080;-73
2021/09/12 02:57:13;;;;;;;22.05;11.85;;;;;;;11.62;100.00;100056.44;6270881;28;20041;-76
2021/09/12 03:00:14;;;;;;;26.63;12.45;;;;;;;11.60;100.00;100060.91;6270814;28;20411;-76
2021/09/12 03:03:15;;;;;;;19.13;10.07;;;;;;;11.58;100.00;100065.41;6270305;28;20060;-73
2021/09/12 03:06:16;;;;;;;20.85;11.95;;;;;;;11.59;100.00;100067.06;6253500;28;20404;-73
2021/09/12 03:09:16;;;;;;;21.27;11.75;;;;;;;11.58;100.00;100068.00;6253571;28;20076;-73
2021/09/12 03:12:17;;;;;;;27.73;15.18;;;;;;;11.57;100.00;100072.41;6270142;28;20492;-74
2021/09/12 03:15:18;;;;;;;33.20;14.98;;;;;;;11.55;100.00;100063.84;6270259;28;20041;-76
2021/09/12 03:18:19;;;;;;;26.90;12.35;;;;;;;11.54;100.00;100061.31;6271639;28;20037;-76
2021/09/12 03:21:20;;;;;;;18.23;10.45;;;;;;;11.55;100.00;100065.59;6270366;28;20117;-74
2021/09/12 03:24:21;;;;;;;17.98;10.38;;;;;;;11.54;100.00;100072.59;6256130;28;20447;-74
2021/09/12 03:27:22;;;;;;;17.88;9.48;;;;;;;11.56;100.00;100062.06;6285407;28;20041;-76
2021/09/12 03:30:23;;;;;;;15.38;9.55;;;;;;;11.54;100.00;100066.53;6298666;28;20071;-76
2021/09/12 03:33:24;;;;;;;18.55;9.68;;;;;;;11.56;100.00;100062.88;6298704;28;20121;-73
2021/09/12 03:36:25;;;;;;;16.25;8.23;;;;;;;11.59;100.00;100067.94;6300670;28;20040;-73
2021/09/12 03:39:25;;;;;;;14.52;8.45;;;;;;;11.54;100.00;100058.69;6300828;28;20127;-73
2021/09/12 03:42:26;;;;;;;15.75;7.55;;;;;;;11.50;100.00;100064.09;6299780;28;20063;-76
2021/09/12 03:45:27;;;;;;;13.57;7.05;;;;;;;11.54;100.00;100056.91;6301073;28;20055;-76
2021/09/12 03:48:28;;;;;;;12.15;6.70;;;;;;;11.53;100.00;100062.22;6300549;28;20498;-73
2021/09/12 03:51:29;;;;;;;13.02;7.13;;;;;;;11.52;100.00;100069.25;6299514;28;20482;-73
2021/09/12 03:54:30;;;;;;;14.95;7.03;;;;;;;11.56;100.00;100067.28;6297913;28;20048;-76
2021/09/12 03:57:30;;;;;;;14.13;7.30;;;;;;;11.59;100.00;100067.06;6285416;28;20075;-76
2021/09/12 04:00:32;;;;;;;12.38;7.07;;;;;;;11.62;100.00;100070.31;6240134;28;20045;-76
2021/09/12 04:03:32;;;;;;;15.80;7.45;;;;;;;11.60;100.00;100063.53;6274271;28;20432;-76
2021/09/12 04:06:33;;;;;;;9.93;7.07;;;;;;;11.67;100.00;100070.00;6256395;28;20048;-73
2021/09/12 04:09:34;;;;;;;13.57;7.72;;;;;;;11.64;100.00;100075.47;6256236;28;20040;-73
2021/09/12 04:12:35;;;;;;;17.23;6.75;;;;;;;11.68;100.00;100074.31;6273971;28;20040;-76
2021/09/12 04:15:35;;;;;;;11.77;7.40;;;;;;;11.67;100.00;100078.72;6256385;28;20507;-73
2021/09/12 04:18:37;;;;;;;10.23;6.68;;;;;;;11.64;100.00;100078.91;6294080;28;20049;-76
2021/09/12 04:21:38;;;;;;;10.10;7.07;;;;;;;11.67;100.00;100077.84;6297421;28;20120;-73
2021/09/12 04:24:39;;;;;;;10.50;6.55;;;;;;;11.66;100.00;100071.81;6298599;28;20045;-76
2021/09/12 04:27:39;;;;;;;10.88;6.65;;;;;;;11.67;100.00;100078.72;6298419;28;20052;-76
2021/09/12 04:30:41;;;;;;;12.63;7.18;;;;;;;11.71;100.00;100076.72;6298317;28;20045;-76
2021/09/12 04:33:42;;;;;;;13.90;7.07;;;;;;;11.77;100.00;100080.72;6297166;28;20049;-76
2021/09/12 04:36:43;;;;;;;12.02;7.82;;;;;;;11.78;100.00;100085.03;6296463;28;20380;-76
2021/09/12 04:39:43;;;;;;;15.98;8.80;;;;;;;11.74;100.00;100081.75;6297026;28;20044;-76
2021/09/12 04:42:44;;;;;;;23.25;10.00;;;;;;;11.76;100.00;100084.28;6298108;28;20040;-76
2021/09/12 04:45:45;;;;;;;18.83;10.60;;;;;;;11.77;100.00;100091.16;6298039;28;20098;-76
2021/09/12 04:48:46;;;;;;;18.15;10.07;;;;;;;11.77;100.00;100083.34;6256929;28;20053;-76
2021/09/12 04:51:47;;;;;;;16.65;9.20;;;;;;;11.84;100.00;100093.28;6255244;28;20083;-76
2021/09/12 04:54:48;;;;;;;16.23;8.07;;;;;;;11.87;100.00;100090.47;6271822;28;20458;-73
2021/09/12 04:57:48;;;;;;;16.02;7.85;;;;;;;11.92;100.00;100091.97;6272786;28;20048;-73
2021/09/12 05:00:49;;;;;;;12.77;7.65;;;;;;;11.97;100.00;100095.97;6276931;28;20041;-76
2021/09/12 05:03:51;;;;;;;13.48;7.80;;;;;;;12.01;100.00;100084.34;6296375;28;20054;-76
2021/09/12 05:06:52;;;;;;;;;;;;;;;12.07;100.00;100078.72;6296839;28;20044;-76
2021/09/12 05:09:53;;;;;;;11.10;6.93;;;;;;;12.12;100.00;100083.63;6297413;28;19970;-76
2021/09/12 05:12:54;;;;;;;15.88;8.85;;;;;;;12.21;100.00;100087.41;6296352;28;20036;-76
2021/09/12 05:15:54;;;;;;;17.80;8.20;;;;;;;12.27;100.00;100084.38;6297254;28;20044;-76
2021/09/12 05:18:55;;;;;;;17.38;9.02;;;;;;;12.45;100.00;100087.53;6279325;28;20036;-76
2021/09/12 05:21:56;;;;;;;17.70;8.88;;;;;;;12.57;100.00;100075.41;6295981;28;20506;-76
2021/09/12 05:24:57;;;;;;;13.82;7.90;;;;;;;12.70;100.00;100092.78;6279210;28;20146;-73
2021/09/12 05:27:57;;;;;;;11.27;7.88;;;;;;;12.84;100.00;100090.97;6295685;28;20029;-74
2021/09/12 05:30:58;;;;;;;17.58;7.90;;;;;;;12.95;100.00;100093.69;6289758;28;20045;-76
2021/09/12 05:33:59;;;;;;;14.82;8.45;;;;;;;13.09;100.00;100096.16;6272458;28;20407;-76
2021/09/12 05:37:00;;;;;;;15.20;7.28;;;;;;;13.23;100.00;100096.94;6272074;28;20403;-76
2021/09/12 05:40:00;;;;;;;14.60;7.82;;;;;;;13.45;100.00;100096.28;6270749;28;20060;-74
2021/09/12 05:43:01;;;;;;;12.23;7.88;;;;;;;13.60;100.00;100100.41;6270658;28;20119;-76
2021/09/12 05:46:02;;;;;;;18.13;8.32;;;;;;;13.79;100.00;100101.69;6237564;28;20069;-76
2021/09/12 05:49:03;;;;;;;11.70;7.85;;;;;;;13.86;100.00;100102.91;6269492;28;20053;-76
2021/09/12 05:52:05;;;;;;;13.13;7.28;;;;;;;13.98;100.00;100111.63;6271539;28;20411;-76
2021/09/12 05:55:06;;;;;;;17.92;7.75;;;;;;;14.11;100.00;100104.53;6270440;28;20484;-76
2021/09/12 05:58:08;;;;;;;10.18;7.25;;;;;;;14.30;100.00;100107.44;6271475;28;20049;-76
2021/09/12 06:01:09;;;;;;;20.63;7.43;;;;;;;14.43;100.00;100104.75;6237170;28;20072;-76
2021/09/12 06:04:10;;;;;;;10.00;6.30;;;;;;;14.61;100.00;100104.31;6253668;28;20041;-76
2021/09/12 06:07:11;;;;;;;14.20;7.10;;;;;;;14.70;100.00;100103.56;6271173;28;20037;-76
2021/09/12 06:10:12;;;;;;;12.40;7.00;;;;;;;14.95;100.00;100107.78;6271530;28;20033;-76
2021/09/12 06:13:13;;;;;;;12.95;7.00;;;;;;;15.02;100.00;100103.69;6253316;28;20056;-76
2021/09/12 06:16:13;;;;;;;12.05;6.45;;;;;;;15.23;100.00;100108.22;6253992;28;20038;-76
2021/09/12 06:19:14;;;;;;;10.52;6.82;;;;;;;15.48;100.00;100105.31;6245005;28;20057;-73
2021/09/12 06:22:15;;;;;;;9.63;6.55;;;;;;;15.66;100.00;100100.31;6278239;28;20041;-73
2021/09/12 06:25:16;;;;;;;10.18;6.57;;;;;;;15.88;100.00;100104.69;6299883;28;20040;-73
2021/09/12 06:28:18;;;;;;;9.65;6.53;;;;;;;16.03;100.00;100104.41;6259138;28;20051;-76
2021/09/12 06:31:21;;;;;;;9.88;6.15;;;;;;;16.14;100.00;100109.59;6282114;28;20118;-74
2021/09/12 06:34:21;;;;;;;11.98;6.30;;;;;;;16.29;100.00;100107.50;6268692;28;20491;-73
2021/09/12 06:37:22;;;;;;;11.77;6.30;;;;;;;16.50;100.00;100103.03;6255828;28;20107;-74
2021/09/12 06:40:24;;;;;;;15.52;6.18;;;;;;;16.85;100.00;100114.19;6277828;28;20048;-74
2021/09/12 06:43:25;;;;;;;15.50;6.10;;;;;;;17.03;97.93;100107.31;6273737;28;20449;-74
2021/09/12 06:46:26;;;;;;;14.48;5.75;;;;;;;17.18;98.72;100110.41;6269209;28;20045;-74
2021/09/12 06:49:27;;;;;;;13.83;5.90;;;;;;;17.33;94.39;100103.75;6270344;28;20065;-74
2021/09/12 06:52:28;;;;;;;7.63;5.43;;;;;;;17.52;92.72;100110.91;6269341;28;20341;-73
2021/09/12 06:55:28;;;;;;;10.63;5.40;;;;;;;17.76;91.03;100119.38;6252680;28;20041;-77
2021/09/12 06:58:29;;;;;;;13.40;5.50;;;;;;;17.87;86.35;100106.94;6268968;28;20047;-74
2021/09/12 07:01:30;;;;;;;8.40;5.57;;;;;;;18.02;88.49;100119.69;6269155;28;20419;-77
2021/09/12 07:04:31;;;;;;;13.40;5.97;;;;;;;18.24;87.47;100116.75;6270410;28;20049;-77
2021/09/12 07:07:32;;;;;;;12.88;6.18;;;;;;;18.40;83.23;100117.97;6275617;28;20507;-77
2021/09/12 07:10:33;;;;;;;9.83;5.50;;;;;;;18.55;85.30;100124.44;6268997;28;20045;-77
2021/09/12 07:13:33;;;;;;;13.57;5.63;;;;;;;18.69;82.32;100123.16;6269052;28;20037;-74
2021/09/12 07:16:34;;;;;;;8.10;5.32;;;;;;;18.82;82.42;100121.06;6270241;28;20041;-73
2021/09/12 07:19:35;;;;;;;9.68;5.75;;;;;;;18.97;80.33;100129.34;6252084;28;20041;-77
2021/09/12 07:22:37;;;;;;;8.43;5.43;;;;;;;19.10;82.00;100129.00;6264995;28;20412;-77
2021/09/12 07:25:38;;;;;;;11.30;5.47;;;;;;;19.23;84.84;100126.88;6290633;28;20476;-77
2021/09/12 07:28:39;;;;;;;10.95;5.07;;;;;;;19.39;73.30;100120.06;6258930;28;20441;-77
2021/09/12 07:31:40;;;;;;;12.30;5.27;;;;;;;19.60;73.90;100131.22;6270237;28;20072;-77
2021/09/12 07:34:40;;;;;;;9.47;5.20;;;;;;;19.71;75.30;100133.69;6302378;28;20376;-77
2021/09/12 07:37:41;;;;;;;8.17;5.10;;;;;;;19.85;75.24;100129.69;6269622;28;20077;-77
2021/09/12 07:40:42;;;;;;;9.57;4.43;;;;;;;19.92;73.55;100132.53;6268640;28;20148;-77
2021/09/12 07:43:43;;;;;;;9.93;4.37;;;;;;;20.00;70.63;100127.31;6302170;28;20051;-77
2021/09/12 07:46:44;;;;;;;11.03;4.60;;;;;;;20.15;71.36;100124.13;6269909;28;20045;-77
2021/09/12 07:49:45;;;;;;;7.10;4.63;;;;;;;20.25;70.13;100130.16;6293020;28;20044;-77
2021/09/12 07:52:46;;;;;;;10.23;4.97;;;;;;;20.40;70.66;100128.59;6245163;28;20040;-77
2021/09/12 07:55:46;;;;;;;12.23;5.00;;;;;;;20.57;69.12;100126.91;6274484;28;20112;-77
2021/09/12 07:58:47;;;;;;;8.20;4.80;;;;;;;20.71;66.31;100120.19;6281117;28;20053;-77
2021/09/12 08:01:48;;;;;;;12.03;5.20;;;;;;;20.88;68.58;100121.97;6235643;28;20045;-77
2021/09/12 08:04:49;;;;;;;10.30;5.27;;;;;;;21.12;69.08;100123.03;6280875;28;20063;-77
2021/09/12 08:07:50;;;;;;;11.90;5.00;;;;;;;21.33;67.73;100114.66;6233945;28;20041;-77
2021/09/12 08:10:50;;;;;;;13.07;5.33;;;;;;;21.51;64.66;100127.84;6250875;28;20087;-77
2021/09/12 08:13:51;;;;;;;8.87;4.77;;;;;;;21.56;64.37;100125.53;6280940;28;20475;-74
2021/09/12 08:16:53;;;;;;;6.83;4.87;;;;;;;21.59;59.89;100124.38;6297510;28;20483;-74
2021/09/12 08:19:54;;;;;;;;;;;;;;;21.70;61.85;100127.56;6297672;28;20045;-74
2021/09/12 08:22:54;;;;;;;9.95;4.78;;;;;;;21.88;61.63;100123.91;6298534;28;19921;-74
2021/09/12 08:25:55;;;;;;;7.77;4.87;;;;;;;21.93;61.12;100125.06;6297409;28;20036;-74
2021/09/12 08:28:56;;;;;;;8.93;4.47;;;;;;;21.87;58.22;100117.75;6280486;28;20040;-74
2021/09/12 08:31:57;;;;;;;9.30;5.03;;;;;;;22.05;58.80;100125.56;6280594;28;20502;-74
2021/09/12 08:34:58;;;;;;;9.90;4.97;;;;;;;22.27;60.27;100117.94;6297006;28;20540;-74
2021/09/12 08:37:59;;;;;;;10.00;4.50;;;;;;;22.31;56.35;100121.94;6280546;28;20479;-74
2021/09/12 08:40:59;;;;;;;9.23;4.10;;;;;;;22.49;55.85;100121.75;6297978;28;20815;-74
2021/09/12 08:44:00;;;;;;;6.70;4.30;;;;;;;22.50;57.47;100121.53;6263696;28;20083;-74
2021/09/12 08:47:01;;;;;;;6.27;4.27;;;;;;;22.78;59.55;100118.50;6289349;28;20095;-74
2021/09/12 08:50:03;;;;;;;8.88;4.40;;;;;;;23.03;55.85;100116.59;6239158;28;20037;-74
2021/09/12 08:53:04;;;;;;;8.60;4.40;;;;;;;23.05;55.06;100117.25;6271865;28;20276;-74
2021/09/12 08:56:04;;;;;;;10.40;5.00;;;;;;;23.17;52.79;100120.38;6272803;28;20044;-74
2021/09/12 08:59:23;;;;;;;13.37;4.20;;;;;;;23.60;58.05;100112.78;6272808;28;20045;-74
2021/09/12 09:02:25;;;;;;;5.95;4.25;;;;;;;23.70;55.04;100116.06;6271461;28;20274;-74
2021/09/12 09:05:29;;;;;;;14.13;4.43;;;;;;;23.91;51.07;100110.09;6272585;28;20041;-74
2021/09/12 09:08:30;;;;;;;8.88;4.30;;;;;;;23.93;51.84;100104.59;6271372;28;20041;-75
2021/09/12 09:11:36;;;;;;;7.83;4.13;;;;;;;24.07;50.65;100108.28;6271321;28;20401;-74
2021/09/12 09:14:37;;;;;;;9.45;4.50;;;;;;;24.09;48.18;100106.25;6259941;28;20052;-74
2021/09/12 09:17:50;;;;;;;8.35;3.85;;;;;;;24.26;48.99;100106.97;6290642;28;20492;-75
2021/09/12 09:20:51;;;;;;;11.27;4.63;;;;;;;24.30;48.58;100101.09;6261176;28;20051;-75
2021/09/12 09:24:15;;;;;;;9.13;4.70;;;;;;;24.58;48.36;100097.81;6274408;28;20491;-74
2021/09/12 09:27:16;;;;;;;7.43;4.40;;;;;;;24.63;48.42;100090.09;6268096;28;20305;-74
2021/09/12 09:30:17;;;;;;;9.02;4.63;;;;;;;24.80;47.10;100087.25;6273586;28;20049;-74
2021/09/12 09:33:26;;;;;;;8.18;4.22;;;;;;;24.84;43.35;100083.19;6261006;28;20033;-74
2021/09/12 09:36:30;;;;;;;10.15;4.70;;;;;;;25.01;42.59;100092.63;6261091;28;20038;-75
2021/09/12 09:39:41;;;;;;;15.68;4.88;;;;;;;25.20;45.27;100085.84;6290375;28;20044;-74
2021/09/12 09:42:44;;;;;;;11.73;4.75;;;;;;;25.30;41.39;100075.72;6260696;28;20662;-75
2021/09/12 09:45:45;;;;;;;12.65;4.65;;;;;;;25.46;40.02;100081.88;6258242;28;20041;-74
2021/09/12 09:48:46;;;;;;;9.77;4.55;;;;;;;25.33;44.06;100071.88;6258876;28;20096;-75
2021/09/12 09:51:48;;;;;;;8.90;4.35;;;;;;;25.52;41.72;100073.91;6257858;28;20094;-75
2021/09/12 09:54:49;;;;;;;9.35;4.45;;;;;;;25.73;40.27;100069.59;6258715;28;20041;-75
2021/09/12 09:57:53;;;;;;;8.27;4.18;;;;;;;25.70;38.37;100070.81;6256473;28;20046;-74
2021/09/12 10:00:54;;;;;;;10.40;4.10;;;;;;;25.71;38.23;100066.28;6258180;28;20437;-75
2021/09/12 10:03:56;;;;;;;8.45;3.97;;;;;;;25.82;39.77;100064.91;6292285;28;20068;-74
2021/09/12 10:06:58;;;;;;;10.18;3.40;;;;;;;25.85;37.13;100064.56;6286621;28;21074;-74
2021/09/12 10:10:01;;;;;;;6.03;3.47;;;;;;;25.62;36.85;100062.91;6259087;28;20033;-75
2021/09/12 10:13:04;;;;;;;8.48;3.72;;;;;;;25.93;36.54;100059.09;6289115;28;20033;-74
2021/09/12 10:16:07;;;;;;;7.88;4.10;;;;;;;26.12;39.08;100058.41;6292143;28;20476;-74
2021/09/12 10:19:08;;;;;;;8.95;3.88;;;;;;;26.21;38.02;100060.94;6274286;28;20041;-74
2021/09/12 10:22:20;;;;;;;7.90;3.28;;;;;;;26.27;35.25;100060.16;6258679;28;20056;-75
2021/09/12 10:25:23;;;;;;;6.75;3.60;;;;;;;26.32;36.60;100055.88;6258852;28;20553;-75
2021/09/12 10:28:35;;;;;;;5.63;3.72;;;;;;;26.26;35.95;100056.66;6256907;28;20048;-74
2021/09/12 10:31:36;;;;;;;8.30;3.38;;;;;;;26.30;36.33;100039.19;6273892;28;20152;-74
2021/09/12 10:35:16;;;;;;;8.20;3.70;;;;;;;26.32;36.45;100058.53;6257190;28;20045;-75
2021/09/12 10:38:30;;;;;;;10.50;3.70;;;;;;;26.65;35.56;100054.44;6269395;28;20476;-75
2021/09/12 10:41:31;;;;;;;10.88;3.85;;;;;;;26.88;36.53;100054.13;6261442;28;20041;-75
2021/09/12 10:44:32;;;;;;;6.70;3.58;;;;;;;26.68;36.17;100049.50;6259943;28;20050;-75
2021/09/12 10:47:33;;;;;;;11.73;3.70;;;;;;;26.88;36.92;100044.22;6259175;28;20056;-75
2021/09/12 10:50:43;;;;;;;8.38;4.15;;;;;;;26.78;35.16;100040.28;6272259;28;20460;-75
2021/09/12 10:53:44;;;;;;;8.95;3.88;;;;;;;27.22;36.04;100045.16;6281038;28;20041;-75
2021/09/12 10:56:45;;;;;;;9.57;3.38;;;;;;;27.15;32.38;100044.31;6287729;28;20311;-75
2021/09/12 10:59:46;;;;;;;10.00;3.67;;;;;;;26.92;31.92;100034.78;6288942;28;20040;-75
2021/09/12 11:02:50;;;;;;;;;;;;;;;26.87;35.22;100036.38;6292615;28;20050;-74
2021/09/12 11:05:51;;;;;;;11.57;4.18;;;;;;;27.04;35.55;100028.84;6265896;28;19980;-74
2021/09/12 11:08:52;;;;;;;8.35;3.88;;;;;;;27.27;33.58;100032.00;6244039;28;20053;-75
2021/09/12 11:11:58;;;;;;;6.65;3.78;;;;;;;27.31;34.67;100033.25;6293478;28;20038;-74
2021/09/12 11:14:59;;;;;;;8.35;3.75;;;;;;;27.55;31.88;100028.34;6255258;28;20116;-74
2021/09/12 11:18:00;;;;;;;6.82;3.72;;;;;;;27.36;33.10;100029.94;6290766;28;20509;-75
2021/09/12 11:21:01;;;;;;;12.30;3.80;;;;;;;27.60;31.99;100017.81;6258690;28;20037;-75
2021/09/12 11:24:08;;;;;;;15.27;4.25;;;;;;;27.45;31.80;100014.53;6289840;28;20124;-74
2021/09/12 11:27:10;;;;;;;8.80;3.53;;;;;;;27.15;33.24;100014.84;6258591;28;20044;-75
2021/09/12 11:30:12;;;;;;;7.88;3.20;;;;;;;27.32;31.85;100013.50;6257872;28;20041;-77
2021/09/12 11:33:13;;;;;;;10.30;3.58;;;;;;;27.52;30.32;100008.13;6271553;28;20049;-77
2021/09/12 11:36:14;;;;;;;5.85;3.10;;;;;;;27.46;30.25;100008.94;6273005;28;20115;-78
2021/09/12 11:39:18;;;;;;;8.73;3.30;;;;;;;27.27;29.04;100007.91;6300246;28;20186;-74
2021/09/12 11:42:19;;;;;;;7.10;2.72;;;;;;;27.39;28.64;100000.09;6268645;28;20041;-78
2021/09/12 11:45:20;;;;;;;4.75;2.85;;;;;;;27.44;27.80;99999.47;6269620;28;20040;-78
2021/09/12 11:48:21;;;;;;;5.03;3.03;;;;;;;27.37;26.62;100001.34;6289713;28;20114;-77
2021/09/12 11:51:31;;;;;;;5.35;2.92;;;;;;;27.32;26.86;99997.41;6289924;28;20389;-75
2021/09/12 11:54:35;;;;;;;4.70;2.60;;;;;;;27.23;26.66;99995.94;6274320;28;20045;-75
2021/09/12 11:57:36;;;;;;;10.50;2.75;;;;;;;27.43;29.58;99993.28;6274284;28;20496;-74
2021/09/12 12:00:43;;;;;;;11.55;3.00;;;;;;;27.64;27.78;99994.94;6306536;28;20051;-76
2021/09/12 12:03:45;;;;;;;6.00;3.58;;;;;;;27.57;28.00;99986.06;6274194;28;20055;-75
2021/09/12 12:06:48;;;;;;;9.00;3.38;;;;;;;27.55;30.91;99980.13;6306417;28;20120;-75
2021/09/12 12:09:49;;;;;;;4.00;2.83;;;;;;;27.63;28.17;99974.50;6274086;28;20048;-75
2021/09/12 12:12:50;;;;;;;;;;;;;;;27.29;27.70;99970.22;6273040;28;20040;-75
2021/09/12 12:15:50;;;;;;;7.50;3.13;;;;;;;27.54;29.99;99971.22;6273967;28;19921;-74
2021/09/12 12:19:03;;;;;;;6.93;3.05;;;;;;;27.40;26.67;99976.78;6306106;28;20041;-75
2021/09/12 12:22:06;;;;;;;9.90;2.90;;;;;;;27.48;28.95;99966.69;6273657;28;20037;-75
2021/09/12 12:25:08;;;;;;;4.68;3.03;;;;;;;27.25;27.45;99968.97;6272491;28;20037;-75
2021/09/12 12:28:17;;;;;;;9.00;3.22;;;;;;;27.14;28.67;99965.03;6273392;28;20088;-74
2021/09/12 12:31:18;;;;;;;7.97;2.60;;;;;;;27.13;26.33;99952.63;6273907;28;20052;-75
2021/09/12 12:34:52;;;;;;;10.88;3.88;;;;;;;27.06;27.36;99949.16;6305820;28;20041;-74
2021/09/12 12:37:53;;;;;;;6.97;3.67;;;;;;;26.96;29.22;99959.44;6270287;28;20041;-75
2021/09/12 12:41:11;;;;;;;7.90;3.45;;;;;;;27.00;28.71;99941.94;6305444;28;20048;-75
2021/09/12 12:44:14;;;;;;;6.10;3.17;;;;;;;26.83;28.24;99944.97;6252893;28;20033;-75
2021/09/12 12:47:29;;;;;;;4.95;2.90;;;;;;;26.83;27.31;99944.97;6248287;28;20140;-75
2021/09/12 12:50:38;;;;;;;6.93;2.95;;;;;;;26.98;30.23;99939.44;6248422;28;20045;-75
2021/09/12 12:53:42;;;;;;;8.02;2.92;;;;;;;26.90;27.75;99942.31;6247094;28;20073;-75
2021/09/12 12:56:42;;;;;;;4.65;2.92;;;;;;;26.59;29.42;99942.84;6279995;28;20403;-75
2021/09/12 12:59:51;;;;;;;8.45;3.30;;;;;;;26.61;29.15;99940.81;6263656;28;20037;-74
2021/09/12 13:02:52;;;;;;;5.40;2.80;;;;;;;26.52;27.77;99938.28;6280222;28;20037;-74
2021/09/12 13:05:54;;;;;;;7.07;3.00;;;;;;;26.48;28.10;99934.34;6263376;28;20455;-74
2021/09/12 13:08:55;;;;;;;5.82;2.83;;;;;;;26.45;28.86;99928.56;6247857;28;20041;-74
2021/09/12 13:11:56;;;;;;;10.15;3.53;;;;;;;26.44;28.45;99930.44;6263630;28;20049;-74
2021/09/12 13:14:57;;;;;;;8.45;3.17;;;;;;;26.40;29.59;99933.69;6282985;28;20040;-75
2021/09/12 13:17:58;;;;;;;8.52;3.15;;;;;;;26.28;28.40;99933.44;6282962;28;20051;-77
2021/09/12 13:20:59;;;;;;;5.15;2.75;;;;;;;26.22;27.68;99921.69;6282739;28;20075;-77
2021/09/12 13:24:00;;;;;;;6.70;2.90;;;;;;;26.05;27.89;99929.22;6282900;28;20125;-77
2021/09/12 13:27:01;;;;;;;6.32;3.15;;;;;;;25.99;29.32;99927.34;6295305;28;20433;-75
2021/09/12 13:30:03;;;;;;;4.95;3.38;;;;;;;26.04;29.68;99916.88;6297391;28;20090;-75
2021/09/12 13:33:06;;;;;;;10.73;3.33;;;;;;;25.96;28.69;99919.69;6295092;28;20090;-75
2021/09/12 13:36:07;;;;;;;4.07;2.72;;;;;;;25.92;29.26;99929.13;6294552;28;20040;-74
2021/09/12 13:39:08;;;;;;;8.18;3.05;;;;;;;25.95;29.62;99922.59;6295462;28;20491;-75
2021/09/12 13:42:09;;;;;;;7.38;2.88;;;;;;;25.92;29.82;99923.78;6251660;28;20048;-74
2021/09/12 13:45:14;;;;;;;3.92;2.90;;;;;;;25.81;28.48;99916.31;6246946;28;20042;-75
2021/09/12 13:48:15;;;;;;;6.28;2.65;;;;;;;25.66;29.39;99916.44;6246819;28;20459;-74
2021/09/12 13:51:16;;;;;;;4.95;2.80;;;;;;;25.74;29.89;99913.59;6247088;28;20034;-74
2021/09/12 13:54:17;;;;;;;6.72;3.35;;;;;;;25.67;31.02;99908.19;6246893;28;20072;-74
2021/09/12 13:57:18;;;;;;;5.18;2.83;;;;;;;25.63;31.13;99909.59;6262309;28;20046;-74
2021/09/12 14:00:19;;;;;;;4.90;2.95;;;;;;;25.63;31.23;99909.59;6246659;28;20128;-74